SMZO/ORG METAR and TAF weather

Enter ICAO airport designator
Station Type Date Time Source
SMZO METAR 2022/09/26 10:00 UTC NOAA

SMZO 261000Z 12003KT 9999 FEW010 25/23 Q1011 NOSIG


Station Type Date Time Source
SMZO Decoded METAR 2022/09/26 10:00 UTC NOAA

Station name not available
Sep 26, 2022 - 06:00 AM EDT / 2022.09.26 1000 UTC
Wind: from the ESE (120 degrees) at 3 MPH (3 KT):0
Visibility: greater than 7 mile(s):0
Sky conditions: mostly clear
Temperature: 77 F (25 C)
Dew Point: 73 F (23 C)
Relative Humidity: 88%
Pressure (altimeter): 29.85 in. Hg (1011 hPa)
ob: SMZO 261000Z 12003KT 9999 FEW010 25/23 Q1011 NOSIG
cycle: 10

Station Type Date Time Source
SMZO TAF 2022/09/26 12:06 UTC NOAA

TAF TAF SMZO 261000Z 2612/2712 14006KT 9999 SCT020 TX35/2617Z TN24/2709Z

Example: see airport list